x

East Superior -70 Nm Ne Marquette, Mi (45004) Wave Buoy

7:50pm - Fri 24th Oct 2014 All times are CDT. -5 hours from GMT.

  • Sig Wave height 1.6ft
  • Swell Direction
  • Peak Period 4s
  • Average Period 3s
  • Wind
    20mph, 25mph gusts
  • Sea Temp 43°f
  • Air Temp 47°f
  • Sea Pressure 1006.4mb
  • East Superior -70 Nm Ne Marquette, Mi
  • East Superior -70 Nm Ne Marquette, Mi

More Historic Weather Station data

Upgrade to MSW Pro to gain access to the past 30 days of data for over 8000 Wavebouys and Weather Stations around the globe.

Join Pro

Comparision Forecast

View Surf forecast
   
Fri 10/24 7:50pm 1.6ft 4s 3s 20 25 mph 1006.4mb 43f 47f
6:50pm 1.6ft 4s 3s 9 11 mph 1008mb 43f 44f
5:50pm 1.6ft 4s 3s 13
mph
1008.5mb 43f 45f
4:50pm 1.6ft 4s 3s 13
mph
1009.3mb 43f 44f
3:50pm 1.6ft 4s 3s 9 11 mph 1010.1mb 43f 43f
2:50pm 1.6ft 3s 3s 11 13 mph 1010.4mb 43f 44f
1:50pm 1.3ft 3s 3s 13 16 mph 1010.9mb 43f 43f
12:50pm 1ft 4s 3s 13 16 mph 1011.9mb 43f 44f
11:50am 0.7ft  -  3s 11 13 mph 1012.9mb 43f 44f
10:50am 1ft 4s 3s 9 11 mph 1013.4mb 42f 44f
9:50am 1ft 4s 4s 9
mph
1013.7mb 42f 44f
8:50am 1ft 4s 4s 9
mph
1014.3mb 42f 44f
7:50am 1ft 3s 3s 7
mph
1014.5mb 42f 44f
6:50am 1ft 4s 3s 7
mph
1014.7mb 42f 44f
5:50am 1ft 4s 3s 4 7 mph 1014.8mb 42f 44f
4:50am 1.3ft 4s 3s 2
mph
1014.9mb 42f 44f
3:50am 1.3ft 3s 3s 2 4 mph 1014.8mb 42f 44f
2:50am 1.3ft 4s 3s 4 7 mph 1014.9mb 42f 44f
1:50am 1.6ft 3s 3s 7
mph
1015.2mb 42f 44f
12:50am 1.3ft 4s 3s 7
mph
1015.1mb 42f 44f
Thu 10/23 11:50pm 1.6ft 4s 4s 7 9 mph 1015.2mb 42f 44f
10:50pm 1.6ft 4s 4s 9 11 mph 1014.9mb 42f 44f
9:50pm 1.6ft 4s 4s 9 11 mph 1015.3mb 42f 44f
8:50pm 1.6ft 4s 4s 7 9 mph 1015.8mb 42f 44f
7:50pm 2ft 4s 4s 7
mph
1015.9mb 42f 44f
6:50pm 2.5ft 5s 4s 11 13 mph 1015.9mb 42f 45f
5:50pm 2.5ft 5s 4s 13 16 mph 1015.8mb 42f 45f
4:50pm 2.5ft 5s 4s 11 13 mph 1016.2mb 42f 44f
3:50pm 3ft 5s 4s 13
mph
1016.5mb 42f 44f
2:50pm 3.5ft 5s 4s 11 13 mph 1016.8mb 42f 44f
1:50pm 3.5ft 5s 4s 11 13 mph 1017.5mb 42f 44f
12:50pm 3.5ft 6s 4s 16 18 mph 1017.5mb 42f 44f
11:50am 4ft 5s 4s 18 20 mph 1017.9mb 42f 44f
10:50am 3.5ft 5s 4s 18 20 mph 1018.4mb 42f 44f
9:50am 3.5ft 5s 4s 18 22 mph 1018.5mb 42f 44f
8:50am 3.5ft 5s 4s 16 20 mph 1019mb 42f 44f
7:50am 4ft 5s 4s 18 20 mph 1019.2mb 42f 43f
6:50am 4ft 6s 4s 18 22 mph 1019.8mb 42f 42f
5:50am 4ft 5s 4s 20 25 mph 1020.2mb 42f 43f
4:50am 4.5ft 6s 4s 18 22 mph 1020.5mb 42f 43f
3:50am 4.5ft 6s 4s 18 22 mph 1021.3mb 42f 43f
2:50am 4.5ft 5s 4s 16 20 mph 1021.6mb 42f 42f
1:50am 4.5ft 5s 4s 18 20 mph 1021.8mb 42f 42f
12:50am 3.5ft 4s 4s 20 25 mph 1022.1mb 42f 42f
Wed 10/22 11:50pm 2.5ft 4s 4s 20 25 mph 1022.6mb 42f 42f
10:50pm 2ft 4s 3s 18 22 mph 1023mb 42f 43f
9:50pm 2.5ft 4s 4s 18 20 mph 1023.4mb 42f 44f
8:50pm 2.5ft 4s 4s 13 16 mph 1023.9mb 42f 43f
7:50pm 2.5ft 4s 3s 18 20 mph 1023.7mb 42f 42f
6:50pm 2ft 4s 3s 16 20 mph 1024.2mb 42f 42f
5:50pm 2.5ft 4s 3s 16 18 mph 1024.5mb 42f 42f
4:50pm 2.5ft 4s 3s 16 18 mph 1025.1mb 42f 42f
3:50pm 2ft 4s 3s 16 20 mph 1025.5mb 42f 42f
2:50pm 2.5ft 4s 3s 16 18 mph 1026.4mb 42f 43f
1:50pm 2ft 4s 3s 13 16 mph 1027.3mb 42f 42f
12:50pm 2ft 4s 3s 13
mph
1028mb 42f 42f
11:50am 2ft 5s 4s 13 16 mph 1028.5mb 42f 42f
10:50am 2ft 5s 4s 13 16 mph 1028.9mb 42f 42f
9:50am 2.5ft 5s 4s 13 16 mph 1028.9mb 42f 42f
8:50am 2.5ft 4s 4s 13 16 mph 1028.8mb 42f 41f
7:50am 2.5ft 4s 3s 16 18 mph 1028.7mb 42f 40f
6:50am 2.5ft 5s 4s 13 16 mph 1028.7mb 42f 40f
5:50am 2.5ft 4s 4s 16 18 mph 1028.2mb 42f 40f
4:50am 2.5ft 4s 3s 16 18 mph 1028mb 42f 41f
3:50am 2.5ft 4s 3s 16 18 mph 1027.7mb 42f 41f
2:50am 2ft 4s 3s 16 18 mph 1027.4mb 42f 41f
1:50am 2ft 4s 3s 16 20 mph 1027.4mb 42f 41f
12:50am 1.3ft 3s 3s 16 20 mph 1027.1mb 42f 42f
Tue 10/21 11:50pm 1ft 4s 3s 13 16 mph 1027.2mb 42f 42f
10:50pm 1ft 4s 3s 4
mph
1027.6mb 42f 39f
9:50pm 1ft 4s 3s 4
mph
1027.5mb 42f 39f
8:50pm 1ft 4s 4s 4
mph
1027.2mb 42f 38f
7:50pm 1ft 5s 4s 4 7 mph 1026.9mb 42f 38f
6:50pm 1.3ft 5s 4s 2 4 mph 1026.9mb 42f 38f
5:50pm 1.6ft 5s 4s 4 7 mph 1026.6mb 42f 38f
4:50pm 1.6ft 4s 4s 2 4 mph 1026.4mb 42f 39f
3:50pm 1.6ft 5s 4s 4
mph
1026.6mb 42f 38f
2:50pm 2ft 4s 4s 4 7 mph 1026.3mb 42f 38f
1:50pm 2ft 5s 4s 7 9 mph 1026.3mb 42f 37f
12:50pm 2.5ft 5s 4s 7 9 mph 1026.4mb 42f 37f
11:50am 2.5ft 4s 4s 7 9 mph 1026.7mb 42f 37f
10:50am 2.5ft 5s 4s 11 13 mph 1026.4mb 42f 37f
9:50am 2.5ft 5s 4s 11 16 mph 1026mb 42f 37f
8:50am 2.5ft 4s 4s 16 18 mph 1025.3mb 42f 37f
7:50am 3ft 5s 4s 16 18 mph 1024.3mb 42f 39f
6:50am 3.5ft 5s 4s 16 18 mph 1023.2mb 42f 39f
5:50am 3.5ft 5s 4s 16 20 mph 1022.6mb 42f 40f
4:50am 3.5ft 5s 4s 20 22 mph 1021.8mb 42f 40f
3:50am 3.5ft 5s 4s 18 22 mph 1021.3mb 42f 40f
2:50am 4ft 5s 4s 18 22 mph 1020.5mb 42f 40f
1:50am 4ft 5s 4s 18 20 mph 1020.2mb 42f 40f